sensor_id;sensor_type;location;lat;lon;timestamp;temperature;humidity
43015;DHT22;28637;50.554;7.032;2023-12-28T00:02:34;8.70;99.90
43015;DHT22;28637;50.554;7.032;2023-12-28T00:07:34;8.60;99.90
43015;DHT22;28637;50.554;7.032;2023-12-28T00:12:36;8.60;99.90
43015;DHT22;28637;50.554;7.032;2023-12-28T00:17:36;8.50;99.90
43015;DHT22;28637;50.554;7.032;2023-12-28T00:22:37;8.50;99.90
43015;DHT22;28637;50.554;7.032;2023-12-28T00:27:38;8.40;99.90
43015;DHT22;28637;50.554;7.032;2023-12-28T00:32:38;8.40;99.90
43015;DHT22;28637;50.554;7.032;2023-12-28T00:37:39;8.30;99.90
43015;DHT22;28637;50.554;7.032;2023-12-28T00:42:40;8.30;99.90
43015;DHT22;28637;50.554;7.032;2023-12-28T00:47:41;8.20;99.90
43015;DHT22;28637;50.554;7.032;2023-12-28T00:52:43;8.20;99.90
43015;DHT22;28637;50.554;7.032;2023-12-28T00:57:44;8.10;99.90
43015;DHT22;28637;50.554;7.032;2023-12-28T01:02:44;8.00;99.90
43015;DHT22;28637;50.554;7.032;2023-12-28T01:07:47;8.00;99.90
43015;DHT22;28637;50.554;7.032;2023-12-28T01:12:48;7.90;99.90
43015;DHT22;28637;50.554;7.032;2023-12-28T01:17:48;7.80;99.90
43015;DHT22;28637;50.554;7.032;2023-12-28T01:22:49;7.70;99.90
43015;DHT22;28637;50.554;7.032;2023-12-28T01:27:52;7.60;99.90
43015;DHT22;28637;50.554;7.032;2023-12-28T01:32:53;7.60;99.90
43015;DHT22;28637;50.554;7.032;2023-12-28T01:37:55;7.60;99.90
43015;DHT22;28637;50.554;7.032;2023-12-28T01:42:56;7.60;99.90
43015;DHT22;28637;50.554;7.032;2023-12-28T01:47:58;7.60;99.90
43015;DHT22;28637;50.554;7.032;2023-12-28T01:53:00;7.60;99.90
43015;DHT22;28637;50.554;7.032;2023-12-28T01:58:02;7.70;99.90
43015;DHT22;28637;50.554;7.032;2023-12-28T02:03:03;7.70;99.90
43015;DHT22;28637;50.554;7.032;2023-12-28T02:08:05;7.80;99.90
43015;DHT22;28637;50.554;7.032;2023-12-28T02:13:05;7.80;99.90
43015;DHT22;28637;50.554;7.032;2023-12-28T02:18:12;7.80;99.90
43015;DHT22;28637;50.554;7.032;2023-12-28T02:23:16;7.90;99.90
43015;DHT22;28637;50.554;7.032;2023-12-28T02:28:17;8.00;99.90
43015;DHT22;28637;50.554;7.032;2023-12-28T02:33:25;8.00;99.90
43015;DHT22;28637;50.554;7.032;2023-12-28T02:38:29;8.00;99.90
43015;DHT22;28637;50.554;7.032;2023-12-28T02:43:30;8.00;99.90
43015;DHT22;28637;50.554;7.032;2023-12-28T02:48:32;8.00;99.90
43015;DHT22;28637;50.554;7.032;2023-12-28T02:53:33;8.00;99.90
43015;DHT22;28637;50.554;7.032;2023-12-28T02:58:33;8.10;99.90
43015;DHT22;28637;50.554;7.032;2023-12-28T03:03:35;8.10;99.90
43015;DHT22;28637;50.554;7.032;2023-12-28T03:08:36;8.10;99.90
43015;DHT22;28637;50.554;7.032;2023-12-28T03:13:36;8.10;99.90
43015;DHT22;28637;50.554;7.032;2023-12-28T03:18:38;8.20;99.90
43015;DHT22;28637;50.554;7.032;2023-12-28T03:23:38;8.20;99.90
43015;DHT22;28637;50.554;7.032;2023-12-28T03:28:40;8.30;99.90
43015;DHT22;28637;50.554;7.032;2023-12-28T03:33:40;8.30;99.90
43015;DHT22;28637;50.554;7.032;2023-12-28T03:38:41;8.30;99.90
43015;DHT22;28637;50.554;7.032;2023-12-28T03:43:42;8.40;99.90
43015;DHT22;28637;50.554;7.032;2023-12-28T03:48:42;8.40;99.90
43015;DHT22;28637;50.554;7.032;2023-12-28T03:53:43;8.50;99.90
43015;DHT22;28637;50.554;7.032;2023-12-28T03:58:44;8.50;99.90
43015;DHT22;28637;50.554;7.032;2023-12-28T04:03:45;8.50;99.90
43015;DHT22;28637;50.554;7.032;2023-12-28T04:08:45;8.50;99.90
43015;DHT22;28637;50.554;7.032;2023-12-28T04:13:46;8.60;99.90
43015;DHT22;28637;50.554;7.032;2023-12-28T04:18:47;8.60;99.90
43015;DHT22;28637;50.554;7.032;2023-12-28T04:23:48;8.60;99.90
43015;DHT22;28637;50.554;7.032;2023-12-28T04:28:48;8.70;99.90
43015;DHT22;28637;50.554;7.032;2023-12-28T04:33:49;8.70;99.90
43015;DHT22;28637;50.554;7.032;2023-12-28T04:38:50;8.70;99.90
43015;DHT22;28637;50.554;7.032;2023-12-28T04:43:50;8.80;99.90
43015;DHT22;28637;50.554;7.032;2023-12-28T04:48:51;8.80;99.90
43015;DHT22;28637;50.554;7.032;2023-12-28T04:53:52;8.80;99.90
43015;DHT22;28637;50.554;7.032;2023-12-28T04:58:53;8.90;99.90
43015;DHT22;28637;50.554;7.032;2023-12-28T05:03:54;8.90;99.90
43015;DHT22;28637;50.554;7.032;2023-12-28T05:08:55;8.80;99.90
43015;DHT22;28637;50.554;7.032;2023-12-28T05:13:56;8.80;99.90
43015;DHT22;28637;50.554;7.032;2023-12-28T05:18:57;8.90;99.90
43015;DHT22;28637;50.554;7.032;2023-12-28T05:23:57;8.90;99.90
43015;DHT22;28637;50.554;7.032;2023-12-28T05:28:58;8.90;99.90
43015;DHT22;28637;50.554;7.032;2023-12-28T05:33:59;8.80;99.90
43015;DHT22;28637;50.554;7.032;2023-12-28T05:39:00;8.80;99.90
43015;DHT22;28637;50.554;7.032;2023-12-28T05:44:01;8.80;99.90
43015;DHT22;28637;50.554;7.032;2023-12-28T05:49:01;8.80;99.90
43015;DHT22;28637;50.554;7.032;2023-12-28T05:54:02;8.80;99.90
43015;DHT22;28637;50.554;7.032;2023-12-28T05:59:03;8.80;99.90
43015;DHT22;28637;50.554;7.032;2023-12-28T06:04:04;8.90;99.90
43015;DHT22;28637;50.554;7.032;2023-12-28T06:09:05;8.90;99.90
43015;DHT22;28637;50.554;7.032;2023-12-28T06:14:06;8.80;99.90
43015;DHT22;28637;50.554;7.032;2023-12-28T06:19:06;8.90;99.90
43015;DHT22;28637;50.554;7.032;2023-12-28T06:24:07;8.80;99.90
43015;DHT22;28637;50.554;7.032;2023-12-28T06:29:08;8.80;99.90
43015;DHT22;28637;50.554;7.032;2023-12-28T06:34:09;8.80;99.90
43015;DHT22;28637;50.554;7.032;2023-12-28T06:39:10;8.80;99.90
43015;DHT22;28637;50.554;7.032;2023-12-28T06:44:11;8.80;99.90
43015;DHT22;28637;50.554;7.032;2023-12-28T06:49:14;8.80;99.90
43015;DHT22;28637;50.554;7.032;2023-12-28T06:54:15;8.70;99.90
43015;DHT22;28637;50.554;7.032;2023-12-28T06:59:16;8.80;99.90
43015;DHT22;28637;50.554;7.032;2023-12-28T07:04:17;8.70;99.90
43015;DHT22;28637;50.554;7.032;2023-12-28T07:09:18;8.70;99.90
43015;DHT22;28637;50.554;7.032;2023-12-28T07:14:18;8.70;99.90
43015;DHT22;28637;50.554;7.032;2023-12-28T07:19:19;8.70;99.90
43015;DHT22;28637;50.554;7.032;2023-12-28T07:24:19;8.70;99.90
43015;DHT22;28637;50.554;7.032;2023-12-28T07:29:20;8.70;99.90
43015;DHT22;28637;50.554;7.032;2023-12-28T07:34:21;8.70;99.90
43015;DHT22;28637;50.554;7.032;2023-12-28T07:39:22;8.60;99.90
43015;DHT22;28637;50.554;7.032;2023-12-28T07:44:22;8.70;99.90
43015;DHT22;28637;50.554;7.032;2023-12-28T07:49:23;8.70;99.90
43015;DHT22;28637;50.554;7.032;2023-12-28T07:54:24;8.80;99.90
43015;DHT22;28637;50.554;7.032;2023-12-28T07:59:24;8.70;99.90
43015;DHT22;28637;50.554;7.032;2023-12-28T08:04:25;8.80;99.90
43015;DHT22;28637;50.554;7.032;2023-12-28T08:09:26;8.80;99.90
43015;DHT22;28637;50.554;7.032;2023-12-28T08:14:27;8.80;99.90
43015;DHT22;28637;50.554;7.032;2023-12-28T08:19:27;8.80;99.90
43015;DHT22;28637;50.554;7.032;2023-12-28T08:24:28;8.90;99.90
43015;DHT22;28637;50.554;7.032;2023-12-28T08:29:29;8.90;99.90
43015;DHT22;28637;50.554;7.032;2023-12-28T08:34:30;8.90;99.90
43015;DHT22;28637;50.554;7.032;2023-12-28T08:39:31;8.90;99.90
43015;DHT22;28637;50.554;7.032;2023-12-28T08:44:31;8.90;99.90
43015;DHT22;28637;50.554;7.032;2023-12-28T08:49:33;8.90;99.90
43015;DHT22;28637;50.554;7.032;2023-12-28T08:54:34;9.00;99.90
43015;DHT22;28637;50.554;7.032;2023-12-28T08:59:37;9.00;99.90
43015;DHT22;28637;50.554;7.032;2023-12-28T09:04:38;9.00;99.90
43015;DHT22;28637;50.554;7.032;2023-12-28T09:09:39;9.10;99.90
43015;DHT22;28637;50.554;7.032;2023-12-28T09:14:40;9.20;99.90
43015;DHT22;28637;50.554;7.032;2023-12-28T09:19:41;9.20;99.90
43015;DHT22;28637;50.554;7.032;2023-12-28T09:24:41;9.30;99.90
43015;DHT22;28637;50.554;7.032;2023-12-28T09:29:42;9.50;99.90
43015;DHT22;28637;50.554;7.032;2023-12-28T09:34:43;9.70;99.90
43015;DHT22;28637;50.554;7.032;2023-12-28T09:39:43;9.90;99.90
43015;DHT22;28637;50.554;7.032;2023-12-28T09:44:45;9.80;99.90
43015;DHT22;28637;50.554;7.032;2023-12-28T09:49:47;9.80;99.90
43015;DHT22;28637;50.554;7.032;2023-12-28T09:54:47;10.00;99.90
43015;DHT22;28637;50.554;7.032;2023-12-28T09:59:48;10.00;99.90
43015;DHT22;28637;50.554;7.032;2023-12-28T10:04:49;10.10;99.90
43015;DHT22;28637;50.554;7.032;2023-12-28T10:09:50;10.20;99.90
43015;DHT22;28637;50.554;7.032;2023-12-28T10:14:51;10.20;99.90
43015;DHT22;28637;50.554;7.032;2023-12-28T10:19:52;10.40;99.90
43015;DHT22;28637;50.554;7.032;2023-12-28T10:24:53;10.50;99.90
43015;DHT22;28637;50.554;7.032;2023-12-28T10:29:57;10.50;99.90
43015;DHT22;28637;50.554;7.032;2023-12-28T10:34:59;10.80;99.90
43015;DHT22;28637;50.554;7.032;2023-12-28T10:40:00;10.80;99.90
43015;DHT22;28637;50.554;7.032;2023-12-28T10:45:04;11.00;99.90
43015;DHT22;28637;50.554;7.032;2023-12-28T10:50:07;11.00;99.90
43015;DHT22;28637;50.554;7.032;2023-12-28T10:55:43;11.10;99.90
43015;DHT22;28637;50.554;7.032;2023-12-28T11:00:45;11.20;99.90
43015;DHT22;28637;50.554;7.032;2023-12-28T11:05:47;11.40;99.90
43015;DHT22;28637;50.554;7.032;2023-12-28T11:10:50;11.80;99.90
43015;DHT22;28637;50.554;7.032;2023-12-28T11:15:52;11.80;99.90
43015;DHT22;28637;50.554;7.032;2023-12-28T11:20:53;11.80;99.90
43015;DHT22;28637;50.554;7.032;2023-12-28T11:25:54;11.90;99.90
43015;DHT22;28637;50.554;7.032;2023-12-28T11:30:56;12.10;99.90
43015;DHT22;28637;50.554;7.032;2023-12-28T11:35:57;12.40;99.90
43015;DHT22;28637;50.554;7.032;2023-12-28T11:41:03;12.50;99.90
43015;DHT22;28637;50.554;7.032;2023-12-28T11:46:07;12.40;99.90
43015;DHT22;28637;50.554;7.032;2023-12-28T11:51:08;12.60;99.90
43015;DHT22;28637;50.554;7.032;2023-12-28T11:56:09;12.60;99.90
43015;DHT22;28637;50.554;7.032;2023-12-28T12:01:11;12.50;99.90
43015;DHT22;28637;50.554;7.032;2023-12-28T12:06:13;12.70;99.90
43015;DHT22;28637;50.554;7.032;2023-12-28T12:11:14;12.50;99.90
43015;DHT22;28637;50.554;7.032;2023-12-28T12:16:14;12.60;99.90
43015;DHT22;28637;50.554;7.032;2023-12-28T12:21:15;12.70;99.90
43015;DHT22;28637;50.554;7.032;2023-12-28T12:26:18;12.70;99.90
43015;DHT22;28637;50.554;7.032;2023-12-28T12:31:19;12.30;99.90
43015;DHT22;28637;50.554;7.032;2023-12-28T12:36:20;12.50;99.90
43015;DHT22;28637;50.554;7.032;2023-12-28T12:41:22;12.20;99.90
43015;DHT22;28637;50.554;7.032;2023-12-28T12:46:23;12.20;99.90
43015;DHT22;28637;50.554;7.032;2023-12-28T12:51:27;12.40;99.90
43015;DHT22;28637;50.554;7.032;2023-12-28T12:56:28;12.50;99.90
43015;DHT22;28637;50.554;7.032;2023-12-28T13:01:29;13.00;99.90
43015;DHT22;28637;50.554;7.032;2023-12-28T13:06:30;13.20;99.90
43015;DHT22;28637;50.554;7.032;2023-12-28T13:11:30;12.80;99.90
43015;DHT22;28637;50.554;7.032;2023-12-28T13:16:31;12.90;99.90
43015;DHT22;28637;50.554;7.032;2023-12-28T13:21:32;12.80;99.90
43015;DHT22;28637;50.554;7.032;2023-12-28T13:26:33;12.90;99.90
43015;DHT22;28637;50.554;7.032;2023-12-28T13:31:34;12.90;99.90
43015;DHT22;28637;50.554;7.032;2023-12-28T13:36:34;12.80;99.90
43015;DHT22;28637;50.554;7.032;2023-12-28T13:41:35;13.40;99.90
43015;DHT22;28637;50.554;7.032;2023-12-28T13:46:36;14.30;99.90
43015;DHT22;28637;50.554;7.032;2023-12-28T13:51:37;14.10;99.90
43015;DHT22;28637;50.554;7.032;2023-12-28T13:56:37;14.10;99.90
43015;DHT22;28637;50.554;7.032;2023-12-28T14:01:38;14.30;99.90
43015;DHT22;28637;50.554;7.032;2023-12-28T14:06:39;13.70;99.90
43015;DHT22;28637;50.554;7.032;2023-12-28T14:11:40;13.40;99.90
43015;DHT22;28637;50.554;7.032;2023-12-28T14:16:41;12.70;99.90
43015;DHT22;28637;50.554;7.032;2023-12-28T14:21:42;12.00;99.90
43015;DHT22;28637;50.554;7.032;2023-12-28T14:26:44;11.50;99.90
43015;DHT22;28637;50.554;7.032;2023-12-28T14:31:45;11.30;99.90
43015;DHT22;28637;50.554;7.032;2023-12-28T14:36:47;11.30;99.90
43015;DHT22;28637;50.554;7.032;2023-12-28T14:41:50;11.30;99.90
43015;DHT22;28637;50.554;7.032;2023-12-28T14:46:51;11.20;99.90
43015;DHT22;28637;50.554;7.032;2023-12-28T14:51:52;11.10;99.90
43015;DHT22;28637;50.554;7.032;2023-12-28T14:56:52;11.00;99.90
43015;DHT22;28637;50.554;7.032;2023-12-28T15:01:53;10.90;99.90
43015;DHT22;28637;50.554;7.032;2023-12-28T15:06:54;10.80;99.90
43015;DHT22;28637;50.554;7.032;2023-12-28T15:11:55;10.60;99.90
43015;DHT22;28637;50.554;7.032;2023-12-28T15:16:56;10.50;99.90
43015;DHT22;28637;50.554;7.032;2023-12-28T15:21:57;10.40;99.90
43015;DHT22;28637;50.554;7.032;2023-12-28T15:26:57;10.30;99.90
43015;DHT22;28637;50.554;7.032;2023-12-28T15:31:58;10.30;99.90
43015;DHT22;28637;50.554;7.032;2023-12-28T15:36:59;10.20;99.90
43015;DHT22;28637;50.554;7.032;2023-12-28T15:41:59;10.20;99.90
43015;DHT22;28637;50.554;7.032;2023-12-28T15:47:01;10.10;99.90
43015;DHT22;28637;50.554;7.032;2023-12-28T15:52:01;9.90;99.90
43015;DHT22;28637;50.554;7.032;2023-12-28T15:57:02;9.90;99.90
43015;DHT22;28637;50.554;7.032;2023-12-28T16:02:03;9.80;99.90
43015;DHT22;28637;50.554;7.032;2023-12-28T16:07:03;9.70;99.90
43015;DHT22;28637;50.554;7.032;2023-12-28T16:12:05;9.70;99.90
43015;DHT22;28637;50.554;7.032;2023-12-28T16:17:08;9.70;99.90
43015;DHT22;28637;50.554;7.032;2023-12-28T16:22:11;9.60;99.90
43015;DHT22;28637;50.554;7.032;2023-12-28T16:27:11;9.60;99.90
43015;DHT22;28637;50.554;7.032;2023-12-28T16:32:12;9.50;99.90
43015;DHT22;28637;50.554;7.032;2023-12-28T16:37:13;9.50;99.90
43015;DHT22;28637;50.554;7.032;2023-12-28T16:42:13;9.40;99.90
43015;DHT22;28637;50.554;7.032;2023-12-28T16:47:14;9.40;99.90
43015;DHT22;28637;50.554;7.032;2023-12-28T16:52:15;9.30;99.90
43015;DHT22;28637;50.554;7.032;2023-12-28T16:57:16;9.30;99.90
43015;DHT22;28637;50.554;7.032;2023-12-28T17:02:16;9.20;99.90
43015;DHT22;28637;50.554;7.032;2023-12-28T17:07:17;9.20;99.90
43015;DHT22;28637;50.554;7.032;2023-12-28T17:12:30;9.20;99.90
43015;DHT22;28637;50.554;7.032;2023-12-28T17:17:31;9.20;99.90
43015;DHT22;28637;50.554;7.032;2023-12-28T17:22:45;9.20;99.90
43015;DHT22;28637;50.554;7.032;2023-12-28T17:27:52;9.10;99.90
43015;DHT22;28637;50.554;7.032;2023-12-28T17:32:58;9.10;99.90
43015;DHT22;28637;50.554;7.032;2023-12-28T17:37:59;9.00;99.90
43015;DHT22;28637;50.554;7.032;2023-12-28T17:43:03;9.00;99.90
43015;DHT22;28637;50.554;7.032;2023-12-28T17:48:11;9.00;99.90
43015;DHT22;28637;50.554;7.032;2023-12-28T17:53:13;9.00;99.90
43015;DHT22;28637;50.554;7.032;2023-12-28T17:58:13;8.90;99.90
43015;DHT22;28637;50.554;7.032;2023-12-28T18:03:14;8.90;99.90
43015;DHT22;28637;50.554;7.032;2023-12-28T18:08:15;9.00;99.90
43015;DHT22;28637;50.554;7.032;2023-12-28T18:13:16;9.00;99.90
43015;DHT22;28637;50.554;7.032;2023-12-28T18:18:16;8.90;99.90
43015;DHT22;28637;50.554;7.032;2023-12-28T18:23:17;8.90;99.90
43015;DHT22;28637;50.554;7.032;2023-12-28T18:28:18;8.80;99.90
43015;DHT22;28637;50.554;7.032;2023-12-28T18:33:19;8.80;99.90
43015;DHT22;28637;50.554;7.032;2023-12-28T18:38:23;8.80;99.90
43015;DHT22;28637;50.554;7.032;2023-12-28T18:43:24;8.90;99.90
43015;DHT22;28637;50.554;7.032;2023-12-28T18:48:25;8.90;99.90
43015;DHT22;28637;50.554;7.032;2023-12-28T18:53:26;8.80;99.90
43015;DHT22;28637;50.554;7.032;2023-12-28T18:58:26;8.80;99.90
43015;DHT22;28637;50.554;7.032;2023-12-28T19:03:27;8.90;99.90
43015;DHT22;28637;50.554;7.032;2023-12-28T19:08:28;8.80;99.90
43015;DHT22;28637;50.554;7.032;2023-12-28T19:13:29;8.80;99.90
43015;DHT22;28637;50.554;7.032;2023-12-28T19:18:29;8.80;99.90
43015;DHT22;28637;50.554;7.032;2023-12-28T19:23:30;8.80;99.90
43015;DHT22;28637;50.554;7.032;2023-12-28T19:28:31;8.90;99.90
43015;DHT22;28637;50.554;7.032;2023-12-28T19:33:31;8.90;99.90
43015;DHT22;28637;50.554;7.032;2023-12-28T19:38:32;8.80;99.90
43015;DHT22;28637;50.554;7.032;2023-12-28T19:43:33;8.90;99.90
43015;DHT22;28637;50.554;7.032;2023-12-28T19:48:35;8.90;99.90
43015;DHT22;28637;50.554;7.032;2023-12-28T19:53:35;8.80;99.90
43015;DHT22;28637;50.554;7.032;2023-12-28T19:58:36;8.80;99.90
43015;DHT22;28637;50.554;7.032;2023-12-28T20:03:37;8.80;99.90
43015;DHT22;28637;50.554;7.032;2023-12-28T20:08:38;8.80;99.90
43015;DHT22;28637;50.554;7.032;2023-12-28T20:13:39;8.90;99.90
43015;DHT22;28637;50.554;7.032;2023-12-28T20:18:40;8.90;99.90
43015;DHT22;28637;50.554;7.032;2023-12-28T20:23:40;8.90;99.90
43015;DHT22;28637;50.554;7.032;2023-12-28T20:28:41;8.90;99.90
43015;DHT22;28637;50.554;7.032;2023-12-28T20:33:42;8.80;99.90
43015;DHT22;28637;50.554;7.032;2023-12-28T20:38:44;8.80;99.90
43015;DHT22;28637;50.554;7.032;2023-12-28T20:43:45;8.70;99.90
43015;DHT22;28637;50.554;7.032;2023-12-28T20:48:46;8.80;99.90
43015;DHT22;28637;50.554;7.032;2023-12-28T20:53:46;8.80;99.90
43015;DHT22;28637;50.554;7.032;2023-12-28T20:58:47;8.70;99.90
43015;DHT22;28637;50.554;7.032;2023-12-28T21:03:49;8.70;99.90
43015;DHT22;28637;50.554;7.032;2023-12-28T21:08:49;8.70;99.90
43015;DHT22;28637;50.554;7.032;2023-12-28T21:13:50;8.70;99.90
43015;DHT22;28637;50.554;7.032;2023-12-28T21:18:52;8.70;99.90
43015;DHT22;28637;50.554;7.032;2023-12-28T21:23:53;8.60;99.90
43015;DHT22;28637;50.554;7.032;2023-12-28T21:28:54;8.60;99.90
43015;DHT22;28637;50.554;7.032;2023-12-28T21:33:54;8.60;99.90
43015;DHT22;28637;50.554;7.032;2023-12-28T21:38:55;8.60;99.90
43015;DHT22;28637;50.554;7.032;2023-12-28T21:43:56;8.80;99.90
43015;DHT22;28637;50.554;7.032;2023-12-28T21:48:57;8.80;99.90
43015;DHT22;28637;50.554;7.032;2023-12-28T21:53:57;8.70;99.90
43015;DHT22;28637;50.554;7.032;2023-12-28T21:58:58;8.60;99.90
43015;DHT22;28637;50.554;7.032;2023-12-28T22:03:59;8.60;99.90
43015;DHT22;28637;50.554;7.032;2023-12-28T22:08:59;8.60;99.90
43015;DHT22;28637;50.554;7.032;2023-12-28T22:14:00;8.60;99.90
43015;DHT22;28637;50.554;7.032;2023-12-28T22:19:01;8.60;99.90
43015;DHT22;28637;50.554;7.032;2023-12-28T22:24:01;8.60;99.90
43015;DHT22;28637;50.554;7.032;2023-12-28T22:29:03;8.60;99.90
43015;DHT22;28637;50.554;7.032;2023-12-28T22:34:03;8.60;99.90
43015;DHT22;28637;50.554;7.032;2023-12-28T22:39:04;8.60;99.90
43015;DHT22;28637;50.554;7.032;2023-12-28T22:44:07;8.60;99.90
43015;DHT22;28637;50.554;7.032;2023-12-28T22:49:08;8.60;99.90
43015;DHT22;28637;50.554;7.032;2023-12-28T22:54:09;8.60;99.90
43015;DHT22;28637;50.554;7.032;2023-12-28T22:59:10;8.60;99.90
43015;DHT22;28637;50.554;7.032;2023-12-28T23:04:14;8.60;99.90
43015;DHT22;28637;50.554;7.032;2023-12-28T23:09:16;8.70;99.90
43015;DHT22;28637;50.554;7.032;2023-12-28T23:14:17;8.70;99.90
43015;DHT22;28637;50.554;7.032;2023-12-28T23:19:17;8.70;99.90
43015;DHT22;28637;50.554;7.032;2023-12-28T23:24:18;8.60;99.90
43015;DHT22;28637;50.554;7.032;2023-12-28T23:29:19;8.60;99.90
43015;DHT22;28637;50.554;7.032;2023-12-28T23:34:19;8.60;99.90
43015;DHT22;28637;50.554;7.032;2023-12-28T23:39:20;8.60;99.90
43015;DHT22;28637;50.554;7.032;2023-12-28T23:44:21;8.60;99.90
43015;DHT22;28637;50.554;7.032;2023-12-28T23:49:22;8.60;99.90
43015;DHT22;28637;50.554;7.032;2023-12-28T23:54:23;8.60;99.90
43015;DHT22;28637;50.554;7.032;2023-12-28T23:59:24;8.60;99.90
